Time;durP1;ratioP1;P1;durP2;ratioP2;P2;SDS_P1;SDS_P2;PMS_P1;PMS_P2;Temp;Humidity;BMP_temperature;BMP_pressure;BME280_temperature;BME280_humidity;BME280_pressure;Samples;Min_cycle;Max_cycle;Signal;HPM_P1;HPM_P2
2021/09/04 00:00:04;;;;;;;;;;;20.40;99.90;20.30;99507.00;;;;342058;28;83447;-93
2021/09/04 00:00:16;;;;;;;;;;;20.40;99.90;20.40;99507.00;;;;335852;28;96056;-93
2021/09/04 00:00:28;;;;;;;;;;;20.40;99.90;20.40;99505.00;;;;339204;28;83717;-93
2021/09/04 00:00:40;;;;;;;;;;;20.40;99.90;20.40;99515.00;;;;340028;28;97139;-93
2021/09/04 00:00:52;;;;;;;;;;;20.40;99.90;20.40;99506.00;;;;340466;28;83409;-93
2021/09/04 00:01:04;;;;;;;;;;;20.40;99.90;20.30;99505.00;;;;341099;28;97257;-93
2021/09/04 00:01:16;;;;;;;;;;;20.40;99.90;20.30;99507.00;;;;341940;28;83386;-93
2021/09/04 00:01:28;;;;;;;;;;;20.40;99.90;20.30;99511.00;;;;338091;28;95544;-92
2021/09/04 00:01:40;;;;;;;;;;;20.40;99.90;20.30;99513.00;;;;339161;28;83547;-94
2021/09/04 00:01:53;;;;;;;;;;;20.40;99.90;20.30;99505.00;;;;344106;28;95937;-93
2021/09/04 00:02:05;;;;;;;;;;;20.40;99.90;20.30;99509.00;;;;339279;28;82463;-92
2021/09/04 00:02:17;;;;;;;;;;;20.40;99.90;20.40;99508.00;;;;338532;28;96391;-93
2021/09/04 00:02:30;;;;;;;;;;;20.40;99.90;20.50;99509.00;;;;337855;28;82473;-93
2021/09/04 00:02:41;;;;;;;;;;;20.40;99.90;20.50;99510.00;;;;339857;28;95436;-93
2021/09/04 00:02:53;;;;;;;;;;;20.40;99.90;20.50;99501.00;;;;339156;28;83208;-93
2021/09/04 00:03:05;;;;;;;;;;;20.40;99.90;20.40;99506.00;;;;338508;28;95813;-93
2021/09/04 00:03:17;;;;;;;;;;;20.40;99.90;20.40;99510.00;;;;340617;28;82466;-93
2021/09/04 00:03:29;;;;;;;;;;;20.40;99.90;20.40;99504.00;;;;339771;28;94168;-92
2021/09/04 00:03:41;;;;;;;;;;;20.40;99.90;20.40;99505.00;;;;341084;28;83368;-93
2021/09/04 00:03:53;;;;;;;;;;;20.40;99.90;20.40;99495.00;;;;339606;28;95725;-94
2021/09/04 00:04:05;;;;;;;;;;;20.40;99.90;20.40;99505.00;;;;343254;28;83378;-92
2021/09/04 00:04:17;;;;;;;;;;;20.40;99.90;20.40;99504.00;;;;338414;28;94094;-92
2021/09/04 00:04:29;;;;;;;;;;;20.40;99.90;20.40;99503.00;;;;337892;28;82509;-92
2021/09/04 00:04:41;;;;;;;;;;;20.40;99.90;20.40;99505.00;;;;339887;28;94235;-93
2021/09/04 00:04:52;;;;;;;;;;;20.40;99.90;20.40;99510.00;;;;341810;28;83421;-93
2021/09/04 00:05:05;;;;;;;;;;;20.40;99.90;20.40;99498.00;;;;341032;28;95479;-93
2021/09/04 00:05:18;;;;;;;;;;;20.40;99.90;20.40;99501.00;;;;347483;28;82544;-92
2021/09/04 00:05:30;;;;;;;;;;;20.40;99.90;20.40;99504.00;;;;343988;28;95511;-93
2021/09/04 00:05:43;;;;;;;;;;;20.40;99.90;20.40;99499.00;;;;348224;27;82584;-93
2021/09/04 00:05:55;;;;;;;;;;;20.40;99.90;20.40;99504.00;;;;341014;28;96946;-93
2021/09/04 00:06:07;;;;;;;;;;;20.40;99.90;20.40;99494.00;;;;339204;28;82549;-93
2021/09/04 00:06:19;;;;;;;;;;;20.40;99.90;20.40;99500.00;;;;339864;28;94810;-94
2021/09/04 00:06:30;;;;;;;;;;;20.40;99.90;20.30;99501.00;;;;339230;28;83429;-93
2021/09/04 00:06:42;;;;;;;;;;;20.40;99.90;20.30;99502.00;;;;338501;28;94321;-93
2021/09/04 00:06:54;;;;;;;;;;;20.40;99.90;20.30;99498.00;;;;339231;28;83435;-93
2021/09/04 00:07:06;;;;;;;;;;;20.40;99.90;20.40;99501.00;;;;338341;28;96702;-94
2021/09/04 00:07:18;;;;;;;;;;;20.40;99.90;20.40;99497.00;;;;340609;28;82502;-94
2021/09/04 00:07:31;;;;;;;;;;;20.40;99.90;20.40;99495.00;;;;338413;28;95896;-93
2021/09/04 00:07:43;;;;;;;;;;;20.40;99.90;20.40;99503.00;;;;340601;28;82525;-93
2021/09/04 00:07:55;;;;;;;;;;;20.40;99.90;20.50;99502.00;;;;339816;28;96502;-93
2021/09/04 00:08:10;;;;;;;;;;;20.40;99.90;20.50;99506.00;;;;340517;28;82499;-93
2021/09/04 00:08:22;;;;;;;;;;;20.40;99.90;20.50;99500.00;;;;337294;28;94836;-94
2021/09/04 00:08:34;;;;;;;;;;;20.40;99.90;20.50;99498.00;;;;339374;28;82383;-93
2021/09/04 00:08:45;;;;;;;;;;;20.40;99.90;20.40;99496.00;;;;337923;28;95485;-92
2021/09/04 00:08:57;;;;;;;;;;;20.40;99.90;20.40;99502.00;;;;340443;28;83420;-93
2021/09/04 00:09:09;;;;;;;;;;;20.40;99.90;20.40;99492.00;;;;339762;28;95393;-92
2021/09/04 00:09:21;;;;;;;;;;;20.40;99.90;20.40;99498.00;;;;340584;28;83356;-93
2021/09/04 00:09:33;;;;;;;;;;;20.40;99.90;20.40;99497.00;;;;338506;28;92658;-93
2021/09/04 00:09:45;;;;;;;;;;;20.40;99.90;20.30;99496.00;;;;337897;28;83609;-93
2021/09/04 00:09:57;;;;;;;;;;;20.40;99.90;20.30;99487.00;;;;338492;28;96470;-93
2021/09/04 00:10:08;;;;;;;;;;;20.40;99.90;20.50;99501.00;;;;341757;28;83424;-92
2021/09/04 00:10:20;;;;;;;;;;;20.40;99.90;20.60;99498.00;;;;341210;28;95768;-93
2021/09/04 00:10:32;;;;;;;;;;;20.40;99.90;20.70;99496.00;;;;345938;28;83552;-93
2021/09/04 00:10:44;;;;;;;;;;;20.40;99.90;20.60;99502.00;;;;346702;28;96922;-93
2021/09/04 00:10:55;;;;;;;;;;;20.40;99.90;20.60;99498.00;;;;340577;28;83464;-93
2021/09/04 00:11:07;;;;;;;;;;;20.40;99.90;20.60;99492.00;;;;337095;28;96669;-93
2021/09/04 00:11:19;;;;;;;;;;;20.40;99.90;20.50;99498.00;;;;339242;28;83449;-93
2021/09/04 00:11:31;;;;;;;;;;;20.40;99.90;20.50;99502.00;;;;345483;28;94098;-93
2021/09/04 00:11:43;;;;;;;;;;;20.40;99.90;20.40;99502.00;;;;346995;28;82746;-92
2021/09/04 00:11:55;;;;;;;;;;;20.40;99.90;20.40;99506.00;;;;341114;28;95858;-93
2021/09/04 00:12:07;;;;;;;;;;;20.40;99.90;20.40;99501.00;;;;339188;28;83400;-93
2021/09/04 00:12:18;;;;;;;;;;;20.40;99.90;20.50;99501.00;;;;339918;28;96897;-93
2021/09/04 00:12:30;;;;;;;;;;;20.40;99.90;20.40;99502.00;;;;339504;28;82383;-93
2021/09/04 00:12:42;;;;;;;;;;;20.40;99.90;20.40;99495.00;;;;337203;28;95419;-93
2021/09/04 00:12:54;;;;;;;;;;;20.40;99.90;20.30;99501.00;;;;337949;28;82371;-92
2021/09/04 00:13:06;;;;;;;;;;;20.40;99.90;20.30;99502.00;;;;339837;28;96827;-92
2021/09/04 00:13:17;;;;;;;;;;;20.40;99.90;20.30;99499.00;;;;340660;28;82398;-93
2021/09/04 00:13:29;;;;;;;;;;;20.40;99.90;20.30;99499.00;;;;342525;28;96227;-93
2021/09/04 00:13:41;;;;;;;;;;;20.40;99.90;20.40;99502.00;;;;342020;28;82338;-94
2021/09/04 00:13:53;;;;;;;;;;;20.40;99.90;20.40;99497.00;;;;338567;28;96475;-94
2021/09/04 00:14:04;;;;;;;;;;;20.40;99.90;20.30;99497.00;;;;340564;28;82449;-92
2021/09/04 00:14:17;;;;;;;;;;;20.40;99.90;20.30;99499.00;;;;339826;28;96626;-93
2021/09/04 00:14:29;;;;;;;;;;;20.40;99.90;20.20;99498.00;;;;336741;28;83292;-92
2021/09/04 00:14:40;;;;;;;;;;;20.40;99.90;20.40;99506.00;;;;339831;28;96617;-93
2021/09/04 00:14:53;;;;;;;;;;;20.40;99.90;20.50;99500.00;;;;339526;28;82462;-92
2021/09/04 00:15:06;;;;;;;;;;;20.40;99.90;20.60;99499.00;;;;339695;28;96709;-93
2021/09/04 00:15:19;;;;;;;;;;;20.40;99.90;20.60;99505.00;;;;337983;28;82497;-93
2021/09/04 00:15:31;;;;;;;;;;;20.40;99.90;20.50;99491.00;;;;337150;28;94083;-92
2021/09/04 00:15:43;;;;;;;;;;;20.40;99.90;20.40;99501.00;;;;339149;28;83430;-92
2021/09/04 00:15:55;;;;;;;;;;;20.40;99.90;20.40;99495.00;;;;335846;28;96493;-93
2021/09/04 00:16:07;;;;;;;;;;;20.40;99.90;20.40;99499.00;;;;337898;28;82563;-92
2021/09/04 00:16:18;;;;;;;;;;;20.40;99.90;20.40;99501.00;;;;338548;28;95514;-93
2021/09/04 00:16:30;;;;;;;;;;;20.40;99.90;20.40;99501.00;;;;339219;28;83561;-93
2021/09/04 00:16:42;;;;;;;;;;;20.40;99.90;20.30;99501.00;;;;338388;28;96523;-93
2021/09/04 00:16:54;;;;;;;;;;;20.40;99.90;20.20;99497.00;;;;339180;28;83461;-93
2021/09/04 00:17:07;;;;;;;;;;;20.40;99.90;20.20;99495.00;;;;337195;28;95632;-92
2021/09/04 00:17:19;;;;;;;;;;;20.30;99.90;20.30;99496.00;;;;337958;28;83379;-93
2021/09/04 00:17:31;;;;;;;;;;;20.40;99.90;20.50;99492.00;;;;337205;28;95453;-93
2021/09/04 00:17:43;;;;;;;;;;;20.30;99.90;20.50;99499.00;;;;341318;28;82622;-92
2021/09/04 00:17:55;;;;;;;;;;;20.30;99.90;20.50;99497.00;;;;338374;28;95399;-91
2021/09/04 00:18:07;;;;;;;;;;;20.40;99.90;20.50;99501.00;;;;340557;28;83457;-93
2021/09/04 00:18:19;;;;;;;;;;;20.30;99.90;20.50;99495.00;;;;338494;28;95791;-90
2021/09/04 00:18:33;;;;;;;;;;;20.40;99.90;20.40;99500.00;;;;340364;28;83519;-92
2021/09/04 00:18:45;;;;;;;;;;;20.40;99.90;20.30;99503.00;;;;344018;28;96745;-93
2021/09/04 00:18:57;;;;;;;;;;;20.40;99.90;20.30;99502.00;;;;346189;28;82495;-93
2021/09/04 00:19:09;;;;;;;;;;;20.40;99.90;20.40;99498.00;;;;345426;28;96828;-91
2021/09/04 00:19:20;;;;;;;;;;;20.30;99.90;20.40;99504.00;;;;344890;28;83522;-93
2021/09/04 00:19:32;;;;;;;;;;;20.30;99.90;20.40;99501.00;;;;338320;28;97142;-93
2021/09/04 00:19:44;;;;;;;;;;;20.30;99.90;20.40;99500.00;;;;340534;28;82500;-92
2021/09/04 00:19:56;;;;;;;;;;;20.40;99.90;20.30;99503.00;;;;339714;28;96779;-93
2021/09/04 00:20:08;;;;;;;;;;;20.40;99.90;20.30;99505.00;;;;344791;28;83493;-93
2021/09/04 00:20:20;;;;;;;;;;;20.30;99.90;20.30;99502.00;;;;342809;28;96125;-93
2021/09/04 00:20:32;;;;;;;;;;;20.40;99.90;20.40;99500.00;;;;338993;28;83375;-90
2021/09/04 00:20:44;;;;;;;;;;;20.40;99.90;20.40;99504.00;;;;339450;28;95527;-93
2021/09/04 00:20:55;;;;;;;;;;;20.30;99.90;20.30;99500.00;;;;337868;28;83471;-93
2021/09/04 00:21:07;;;;;;;;;;;20.30;99.90;20.30;99497.00;;;;339795;28;95512;-93
2021/09/04 00:21:19;;;;;;;;;;;20.40;99.90;20.30;99498.00;;;;340517;28;83414;-93
2021/09/04 00:21:31;;;;;;;;;;;20.40;99.90;20.30;99507.00;;;;339739;28;96397;-93
2021/09/04 00:21:43;;;;;;;;;;;20.40;99.90;20.20;99499.00;;;;340599;28;82334;-93
2021/09/04 00:21:54;;;;;;;;;;;20.30;99.90;20.20;99499.00;;;;339901;28;92897;-93
2021/09/04 00:22:06;;;;;;;;;;;20.30;99.90;20.20;99504.00;;;;339156;28;83364;-94
2021/09/04 00:22:18;;;;;;;;;;;20.30;99.90;20.20;99500.00;;;;338543;28;94315;-93
2021/09/04 00:22:30;;;;;;;;;;;20.30;99.90;20.30;99498.00;;;;339263;28;83397;-93
2021/09/04 00:22:42;;;;;;;;;;;20.30;99.90;20.30;99498.00;;;;337037;28;97316;-93
2021/09/04 00:22:53;;;;;;;;;;;20.30;99.90;20.40;99503.00;;;;339254;28;82395;-93
2021/09/04 00:23:05;;;;;;;;;;;20.30;99.90;20.30;99495.00;;;;338346;28;97319;-92
2021/09/04 00:23:17;;;;;;;;;;;20.30;99.90;20.30;99499.00;;;;339160;28;82546;-93
2021/09/04 00:23:29;;;;;;;;;;;20.30;99.90;20.30;99501.00;;;;339661;28;96639;-91
2021/09/04 00:23:40;;;;;;;;;;;20.30;99.90;20.20;99489.00;;;;337529;28;83759;-93
2021/09/04 00:23:52;;;;;;;;;;;20.30;99.90;20.20;99499.00;;;;337386;28;97684;-93
2021/09/04 00:24:04;;;;;;;;;;;20.30;99.90;20.20;99498.00;;;;340520;28;82494;-93
2021/09/04 00:24:16;;;;;;;;;;;20.30;99.90;20.20;99491.00;;;;339769;28;94625;-93
2021/09/04 00:24:27;;;;;;;;;;;20.30;99.90;20.30;99502.00;;;;337901;28;83540;-93
2021/09/04 00:24:40;;;;;;;;;;;20.30;99.90;20.30;99492.00;;;;341110;28;96446;-93
2021/09/04 00:24:52;;;;;;;;;;;20.30;99.90;20.30;99491.00;;;;341882;28;83427;-93
2021/09/04 00:25:04;;;;;;;;;;;20.30;99.90;20.30;99501.00;;;;337144;28;96158;-92
2021/09/04 00:25:16;;;;;;;;;;;20.30;99.90;20.20;99497.00;;;;339178;28;82553;-94
2021/09/04 00:25:28;;;;;;;;;;;20.30;99.90;20.20;99497.00;;;;338473;28;95456;-93
2021/09/04 00:25:40;;;;;;;;;;;20.30;99.90;20.20;99492.00;;;;340290;28;83437;-91
2021/09/04 00:25:52;;;;;;;;;;;20.30;99.90;20.20;99501.00;;;;339781;28;95508;-93
2021/09/04 00:26:03;;;;;;;;;;;20.30;99.90;20.20;99492.00;;;;340583;28;83398;-93
2021/09/04 00:26:15;;;;;;;;;;;20.30;99.90;20.30;99494.00;;;;339891;28;93454;-92
2021/09/04 00:26:28;;;;;;;;;;;20.30;99.90;20.30;99496.00;;;;338012;28;82473;-93
2021/09/04 00:26:39;;;;;;;;;;;20.30;99.90;20.30;99501.00;;;;338302;28;96282;-93
2021/09/04 00:26:51;;;;;;;;;;;20.30;99.90;20.20;99501.00;;;;338976;28;83584;-93
2021/09/04 00:27:05;;;;;;;;;;;20.30;99.90;20.20;99484.00;;;;339867;28;95425;-93
2021/09/04 00:27:17;;;;;;;;;;;20.30;99.90;20.20;99489.00;;;;337886;28;83320;-93
2021/09/04 00:27:29;;;;;;;;;;;20.20;99.90;20.20;99489.00;;;;337018;28;95546;-92
2021/09/04 00:27:40;;;;;;;;;;;20.30;99.90;20.20;99494.00;;;;338129;28;82275;-93
2021/09/04 00:27:52;;;;;;;;;;;20.20;99.90;20.20;99493.00;;;;339822;28;93922;-93
2021/09/04 00:28:04;;;;;;;;;;;20.30;99.90;20.10;99498.00;;;;340527;28;83383;-92
2021/09/04 00:28:16;;;;;;;;;;;20.30;99.90;20.10;99496.00;;;;344055;28;95962;-93
2021/09/04 00:28:28;;;;;;;;;;;20.30;99.90;20.10;99503.00;;;;344879;28;83041;-93
2021/09/04 00:28:41;;;;;;;;;;;20.30;99.90;20.10;99504.00;;;;345397;28;96785;-92
2021/09/04 00:28:53;;;;;;;;;;;20.20;99.90;20.10;99492.00;;;;346101;28;82582;-93
2021/09/04 00:29:05;;;;;;;;;;;20.20;99.90;20.20;99495.00;;;;337185;28;95424;-93
2021/09/04 00:29:17;;;;;;;;;;;20.20;99.90;20.10;99492.00;;;;340433;28;83251;-92
2021/09/04 00:29:29;;;;;;;;;;;20.20;99.90;20.10;99497.00;;;;336992;28;96800;-92
2021/09/04 00:29:40;;;;;;;;;;;20.20;99.90;20.10;99494.00;;;;337577;28;83612;-91
2021/09/04 00:29:52;;;;;;;;;;;20.20;99.90;20.10;99492.00;;;;338722;28;95561;-92
2021/09/04 00:30:05;;;;;;;;;;;20.20;99.90;20.10;99488.00;;;;337829;28;83379;-92
2021/09/04 00:30:16;;;;;;;;;;;20.20;99.90;20.20;99494.00;;;;339753;28;95976;-93
2021/09/04 00:30:28;;;;;;;;;;;20.20;99.90;20.10;99488.00;;;;341986;28;82549;-93
2021/09/04 00:30:40;;;;;;;;;;;20.20;99.90;20.10;99502.00;;;;339793;28;97251;-93
2021/09/04 00:30:52;;;;;;;;;;;20.20;99.90;20.10;99495.00;;;;346117;28;83317;-93
2021/09/04 00:31:04;;;;;;;;;;;20.20;99.90;20.20;99494.00;;;;343977;28;97330;-93
2021/09/04 00:31:15;;;;;;;;;;;20.20;99.90;20.20;99492.00;;;;339162;28;83412;-93
2021/09/04 00:31:27;;;;;;;;;;;20.20;99.90;20.20;99488.00;;;;337076;28;92772;-93
2021/09/04 00:31:39;;;;;;;;;;;20.20;99.90;20.10;99484.00;;;;340481;28;83186;-93
2021/09/04 00:31:51;;;;;;;;;;;20.20;99.90;20.10;99494.00;;;;337056;28;97362;-93
2021/09/04 00:32:03;;;;;;;;;;;20.20;99.90;20.10;99493.00;;;;340478;28;82515;-91
2021/09/04 00:32:15;;;;;;;;;;;20.20;99.90;20.20;99490.00;;;;337107;28;93819;-92
2021/09/04 00:32:26;;;;;;;;;;;20.20;99.90;20.30;99496.00;;;;339224;28;83378;-94
2021/09/04 00:32:38;;;;;;;;;;;20.20;99.90;20.30;99490.00;;;;339787;28;96506;-92
2021/09/04 00:32:50;;;;;;;;;;;20.20;99.90;20.20;99492.00;;;;341489;28;83523;-92
2021/09/04 00:33:02;;;;;;;;;;;20.20;99.90;20.10;99486.00;;;;339704;28;95327;-93
2021/09/04 00:33:13;;;;;;;;;;;20.20;99.90;20.10;99494.00;;;;339240;28;83430;-93
2021/09/04 00:33:27;;;;;;;;;;;20.20;99.90;20.20;99494.00;;;;342676;28;96295;-93
2021/09/04 00:33:39;;;;;;;;;;;20.20;99.90;20.20;99490.00;;;;346274;28;83538;-92
2021/09/04 00:33:50;;;;;;;;;;;20.20;99.90;20.20;99492.00;;;;339589;28;95714;-93
2021/09/04 00:34:02;;;;;;;;;;;20.20;99.90;20.20;99493.00;;;;339243;28;82599;-93
2021/09/04 00:34:15;;;;;;;;;;;20.20;99.90;20.10;99491.00;;;;339801;28;94826;-93
2021/09/04 00:34:27;;;;;;;;;;;20.20;99.90;20.10;99490.00;;;;340535;28;82450;-93
2021/09/04 00:34:38;;;;;;;;;;;20.20;99.90;20.00;99496.00;;;;348204;27;96481;-93
2021/09/04 00:34:51;;;;;;;;;;;20.20;99.90;20.00;99493.00;;;;346151;28;82510;-93
2021/09/04 00:35:03;;;;;;;;;;;20.20;99.90;20.20;99487.00;;;;345393;28;96809;-93
2021/09/04 00:35:18;;;;;;;;;;;20.20;99.90;20.30;99489.00;;;;345967;28;83469;-93
2021/09/04 00:35:29;;;;;;;;;;;20.20;99.90;20.30;99492.00;;;;343975;28;96457;-93
2021/09/04 00:35:41;;;;;;;;;;;20.20;99.90;20.20;99491.00;;;;338992;28;82733;-93
2021/09/04 00:35:53;;;;;;;;;;;20.20;99.90;20.20;99494.00;;;;340900;28;96271;-93
2021/09/04 00:36:05;;;;;;;;;;;20.20;99.90;20.10;99491.00;;;;340438;28;82438;-92
2021/09/04 00:36:16;;;;;;;;;;;20.20;99.90;20.00;99491.00;;;;341185;28;96244;-93
2021/09/04 00:36:28;;;;;;;;;;;20.20;99.90;19.90;99483.00;;;;340500;28;82506;-93
2021/09/04 00:36:40;;;;;;;;;;;20.20;99.90;20.00;99487.00;;;;338574;28;92696;-93
2021/09/04 00:36:52;;;;;;;;;;;20.20;99.90;20.10;99494.00;;;;340452;28;82499;-93
2021/09/04 00:37:04;;;;;;;;;;;20.10;99.90;20.10;99492.00;;;;339893;28;93102;-93
2021/09/04 00:37:16;;;;;;;;;;;20.20;99.90;20.10;99490.00;;;;337970;28;83356;-93
2021/09/04 00:37:27;;;;;;;;;;;20.20;99.90;20.00;99490.00;;;;337141;28;95313;-93
2021/09/04 00:37:39;;;;;;;;;;;20.20;99.90;20.00;99495.00;;;;337909;28;83080;-93
2021/09/04 00:37:51;;;;;;;;;;;20.10;99.90;20.10;99482.00;;;;339724;28;97070;-92
2021/09/04 00:38:03;;;;;;;;;;;20.20;99.90;20.10;99488.00;;;;343257;28;82470;-93
2021/09/04 00:38:14;;;;;;;;;;;20.20;99.90;20.10;99487.00;;;;339851;28;94918;-93
2021/09/04 00:38:26;;;;;;;;;;;20.10;99.90;20.10;99491.00;;;;337881;28;82460;-92
2021/09/04 00:38:38;;;;;;;;;;;20.10;99.90;20.00;99487.00;;;;339607;28;95587;-93
2021/09/04 00:38:50;;;;;;;;;;;20.20;99.90;20.00;99491.00;;;;340196;28;82493;-92
2021/09/04 00:39:02;;;;;;;;;;;20.10;99.90;19.90;99494.00;;;;338435;28;96491;-93
2021/09/04 00:39:14;;;;;;;;;;;20.10;99.90;19.90;99493.00;;;;340528;28;83344;-93
2021/09/04 00:39:26;;;;;;;;;;;20.10;99.90;19.90;99491.00;;;;338492;28;94056;-93
2021/09/04 00:39:37;;;;;;;;;;;20.10;99.90;19.80;99494.00;;;;340534;28;83542;-93
2021/09/04 00:39:49;;;;;;;;;;;20.10;99.90;19.90;99488.00;;;;338535;28;97065;-93
2021/09/04 00:40:02;;;;;;;;;;;20.10;99.90;19.90;99487.00;;;;339215;28;83415;-92
2021/09/04 00:40:14;;;;;;;;;;;20.10;99.90;20.00;99489.00;;;;338449;28;95512;-94
2021/09/04 00:40:25;;;;;;;;;;;20.10;99.90;20.00;99487.00;;;;339262;28;82578;-93
2021/09/04 00:40:37;;;;;;;;;;;20.10;99.90;20.00;99486.00;;;;339895;28;94137;-93
2021/09/04 00:40:49;;;;;;;;;;;20.10;99.90;20.00;99484.00;;;;340543;28;83412;-93
2021/09/04 00:41:01;;;;;;;;;;;20.10;99.90;19.90;99480.00;;;;341164;28;94121;-93
2021/09/04 00:41:21;;;;;;;;;;;20.10;99.90;19.90;99484.00;;;;347694;28;83337;-94
2021/09/04 00:41:34;;;;;;;;;;;20.10;99.90;20.00;99483.00;;;;339645;28;95581;-94
2021/09/04 00:41:46;;;;;;;;;;;20.10;99.90;20.00;99485.00;;;;338927;28;82509;-94
2021/09/04 00:41:58;;;;;;;;;;;20.10;99.90;20.00;99486.00;;;;338387;28;96495;-93
2021/09/04 00:42:12;;;;;;;;;;;20.10;99.90;20.00;99482.00;;;;345979;28;83499;-94
2021/09/04 00:42:24;;;;;;;;;;;20.00;99.90;20.00;99489.00;;;;345524;28;93437;-94
2021/09/04 00:42:35;;;;;;;;;;;20.10;99.90;20.00;99481.00;;;;347540;28;83431;-93
2021/09/04 00:42:47;;;;;;;;;;;20.10;99.90;19.90;99480.00;;;;343974;28;96337;-94
2021/09/04 00:42:59;;;;;;;;;;;20.00;99.90;19.90;99475.00;;;;341919;28;83396;-93
2021/09/04 00:43:11;;;;;;;;;;;20.10;99.90;20.00;99486.00;;;;339721;28;96718;-94
2021/09/04 00:43:23;;;;;;;;;;;20.00;99.90;20.00;99482.00;;;;339308;28;83331;-94
2021/09/04 00:43:34;;;;;;;;;;;20.00;99.90;20.00;99485.00;;;;338256;28;96504;-94
2021/09/04 00:43:47;;;;;;;;;;;20.00;99.90;20.00;99479.00;;;;339191;28;83510;-94
2021/09/04 00:43:59;;;;;;;;;;;20.00;99.90;19.90;99491.00;;;;338477;28;96368;-93
2021/09/04 00:44:15;;;;;;;;;;;20.00;99.90;20.00;99492.00;;;;340485;28;82637;-94
2021/09/04 00:44:27;;;;;;;;;;;20.00;99.90;19.90;99478.00;;;;339651;28;95291;-93
2021/09/04 00:44:39;;;;;;;;;;;20.00;99.90;19.90;99480.00;;;;345904;28;83366;-93
2021/09/04 00:44:51;;;;;;;;;;;20.00;99.90;20.00;99484.00;;;;345178;28;96495;-94
2021/09/04 00:45:03;;;;;;;;;;;20.00;99.90;19.90;99476.00;;;;346229;28;83361;-93
2021/09/04 00:45:15;;;;;;;;;;;20.00;99.90;19.90;99480.00;;;;337112;28;98098;-94
2021/09/04 00:45:27;;;;;;;;;;;20.00;99.90;19.90;99476.00;;;;340652;28;82407;-93
2021/09/04 00:45:39;;;;;;;;;;;20.00;99.90;19.90;99482.00;;;;338251;28;95718;-93
2021/09/04 00:45:51;;;;;;;;;;;20.00;99.90;19.90;99480.00;;;;339241;28;83419;-94
2021/09/04 00:46:07;;;;;;;;;;;20.00;99.90;20.00;99479.00;;;;339797;28;95630;-93
2021/09/04 00:46:19;;;;;;;;;;;20.00;99.90;20.00;99479.00;;;;340679;28;82386;-94
2021/09/04 00:46:30;;;;;;;;;;;20.00;99.90;19.90;99481.00;;;;341063;28;96297;-93
2021/09/04 00:46:42;;;;;;;;;;;20.00;99.90;19.90;99479.00;;;;339216;28;83320;-93
2021/09/04 00:47:01;;;;;;;;;;;20.00;99.90;19.90;99477.00;;;;342460;28;96590;-93
2021/09/04 00:47:13;;;;;;;;;;;20.00;99.90;20.00;99479.00;;;;337832;28;83456;-94
2021/09/04 00:47:28;;;;;;;;;;;20.00;99.90;19.90;99481.00;;;;339433;28;95656;-94
2021/09/04 00:47:57;;;;;;;;;;;20.00;99.90;19.90;99478.00;;;;338921;28;83591;-92
2021/09/04 00:48:09;;;;;;;;;;;20.00;99.90;20.00;99480.00;;;;338236;28;96998;-94
2021/09/04 00:48:21;;;;;;;;;;;20.00;99.90;20.00;99482.00;;;;340287;28;83435;-94
2021/09/04 00:48:32;;;;;;;;;;;20.00;99.90;19.90;99481.00;;;;339626;28;94132;-94
2021/09/04 00:48:59;;;;;;;;;;;20.00;99.90;20.00;99480.00;;;;340411;28;82568;-93
2021/09/04 00:49:11;;;;;;;;;;;20.00;99.90;19.90;99475.00;;;;339768;28;96221;-94
2021/09/04 00:49:23;;;;;;;;;;;20.00;99.90;19.90;99482.00;;;;340581;28;82360;-92
2021/09/04 00:49:35;;;;;;;;;;;20.00;99.90;19.90;99482.00;;;;339808;28;93022;-94
2021/09/04 00:49:46;;;;;;;;;;;20.00;99.90;19.90;99479.00;;;;340535;28;82490;-93
2021/09/04 00:49:58;;;;;;;;;;;20.00;99.90;19.90;99473.00;;;;342702;28;95432;-93
2021/09/04 00:50:10;;;;;;;;;;;20.00;99.90;19.90;99476.00;;;;344586;28;83380;-93
2021/09/04 00:50:22;;;;;;;;;;;20.00;99.90;19.90;99476.00;;;;338427;28;96417;-94
2021/09/04 00:50:35;;;;;;;;;;;20.00;99.90;19.90;99480.00;;;;339206;28;82436;-94
2021/09/04 00:50:47;;;;;;;;;;;20.00;99.90;19.90;99468.00;;;;344996;28;96340;-93
2021/09/04 00:50:58;;;;;;;;;;;20.00;99.90;19.90;99474.00;;;;346044;28;83548;-92
2021/09/04 00:51:10;;;;;;;;;;;20.00;99.90;19.90;99476.00;;;;339680;28;95888;-93
2021/09/04 00:51:22;;;;;;;;;;;20.00;99.90;19.90;99482.00;;;;341849;28;83357;-94
2021/09/04 00:51:34;;;;;;;;;;;20.00;99.90;19.90;99476.00;;;;337084;28;95426;-94
2021/09/04 00:51:46;;;;;;;;;;;20.00;99.90;19.90;99481.00;;;;340370;28;83670;-94
2021/09/04 00:51:57;;;;;;;;;;;20.00;99.90;20.00;99475.00;;;;339720;28;96524;-94
2021/09/04 00:52:09;;;;;;;;;;;20.00;99.90;20.00;99476.00;;;;340491;28;82937;-94
2021/09/04 00:52:21;;;;;;;;;;;20.00;99.90;20.00;99475.00;;;;339716;28;95385;-94
2021/09/04 00:52:33;;;;;;;;;;;20.00;99.90;19.90;99473.00;;;;340556;28;83380;-93
2021/09/04 00:52:45;;;;;;;;;;;20.00;99.90;19.90;99463.00;;;;345306;28;96328;-92
2021/09/04 00:52:56;;;;;;;;;;;20.00;99.90;19.90;99472.00;;;;347638;28;83333;-94
2021/09/04 00:53:08;;;;;;;;;;;19.90;99.90;19.90;99477.00;;;;344096;28;95874;-94
2021/09/04 00:53:20;;;;;;;;;;;19.90;99.90;19.80;99479.00;;;;347569;28;83469;-92
2021/09/04 00:53:32;;;;;;;;;;;20.00;99.90;19.90;99470.00;;;;339739;28;96792;-93
2021/09/04 00:53:44;;;;;;;;;;;19.90;99.90;19.90;99468.00;;;;344515;28;82655;-93
2021/09/04 00:53:56;;;;;;;;;;;19.90;99.90;19.90;99475.00;;;;344265;28;97246;-93
2021/09/04 00:54:07;;;;;;;;;;;19.90;99.90;19.80;99470.00;;;;346087;28;83441;-94
2021/09/04 00:54:19;;;;;;;;;;;19.90;99.90;19.80;99475.00;;;;346733;27;96503;-93
2021/09/04 00:54:31;;;;;;;;;;;19.90;99.90;19.80;99477.00;;;;339093;28;83342;-93
2021/09/04 00:54:43;;;;;;;;;;;19.90;99.90;19.80;99473.00;;;;345367;28;93842;-93
2021/09/04 00:54:55;;;;;;;;;;;19.90;99.90;19.80;99470.00;;;;344722;28;82339;-93
2021/09/04 00:55:07;;;;;;;;;;;19.90;99.90;19.80;99476.00;;;;344033;28;97116;-94
2021/09/04 00:55:19;;;;;;;;;;;19.90;99.90;19.80;99480.00;;;;344702;28;83453;-93
2021/09/04 00:55:30;;;;;;;;;;;19.90;99.90;19.80;99471.00;;;;338340;28;95533;-93
2021/09/04 00:55:42;;;;;;;;;;;19.90;99.90;19.80;99472.00;;;;339171;28;82457;-94
2021/09/04 00:55:54;;;;;;;;;;;19.90;99.90;19.80;99465.00;;;;339785;28;96477;-93
2021/09/04 00:56:06;;;;;;;;;;;19.90;99.90;19.80;99471.00;;;;340545;28;82382;-92
2021/09/04 00:56:17;;;;;;;;;;;19.90;99.90;19.80;99468.00;;;;342432;28;94646;-93
2021/09/04 00:56:29;;;;;;;;;;;19.90;99.90;19.80;99473.00;;;;337897;28;83306;-93
2021/09/04 00:56:41;;;;;;;;;;;19.90;99.90;19.90;99469.00;;;;345873;28;96861;-93
2021/09/04 00:56:53;;;;;;;;;;;19.80;99.90;19.80;99467.00;;;;341781;28;83488;-93
2021/09/04 00:57:05;;;;;;;;;;;19.90;99.90;19.80;99468.00;;;;338476;28;96480;-93
2021/09/04 00:57:16;;;;;;;;;;;19.90;99.90;19.80;99466.00;;;;339196;28;82408;-93
2021/09/04 00:57:28;;;;;;;;;;;19.90;99.90;19.80;99472.00;;;;338251;28;93236;-92
2021/09/04 00:57:40;;;;;;;;;;;19.80;99.90;19.80;99462.00;;;;338101;28;82512;-93
2021/09/04 00:57:52;;;;;;;;;;;19.80;99.90;19.80;99469.00;;;;338462;28;94250;-94
2021/09/04 00:58:04;;;;;;;;;;;19.80;99.90;19.70;99468.00;;;;339242;28;83342;-93
2021/09/04 00:58:15;;;;;;;;;;;19.80;99.90;19.90;99469.00;;;;337170;28;94495;-94
2021/09/04 00:58:27;;;;;;;;;;;19.80;99.90;19.90;99462.00;;;;341811;28;82562;-94
2021/09/04 00:58:39;;;;;;;;;;;19.80;99.90;20.00;99466.00;;;;339749;28;96949;-93
2021/09/04 00:58:51;;;;;;;;;;;19.80;99.90;20.00;99470.00;;;;343113;28;83346;-91
2021/09/04 00:59:05;;;;;;;;;;;19.80;99.90;20.10;99467.00;;;;339908;28;96195;-94
2021/09/04 00:59:17;;;;;;;;;;;19.80;99.90;20.10;99466.00;;;;339457;28;82547;-94
2021/09/04 00:59:29;;;;;;;;;;;19.80;99.90;20.20;99471.00;;;;339721;28;96304;-92
2021/09/04 00:59:59;;;;;;;;;;;19.90;99.90;20.20;99467.00;;;;340344;28;83474;-92
2021/09/04 01:00:11;;;;;;;;;;;19.90;99.90;20.10;99467.00;;;;339420;28;96592;-93
2021/09/04 01:00:23;;;;;;;;;;;19.90;99.90;20.20;99470.00;;;;339378;28;82449;-94